sensor_id;sensor_type;location;lat;lon;timestamp;P1;durP1;ratioP1;P2;durP2;ratioP2
70558;SDS011;58108;48.094;11.838;2023-04-06T00:02:06;9.20;;;3.53;;
70558;SDS011;58108;48.094;11.838;2023-04-06T00:04:31;9.17;;;3.30;;
70558;SDS011;58108;48.094;11.838;2023-04-06T00:06:56;7.53;;;3.00;;
70558;SDS011;58108;48.094;11.838;2023-04-06T00:09:22;9.20;;;3.60;;
70558;SDS011;58108;48.094;11.838;2023-04-06T00:11:47;7.47;;;3.50;;
70558;SDS011;58108;48.094;11.838;2023-04-06T00:14:12;7.80;;;3.47;;
70558;SDS011;58108;48.094;11.838;2023-04-06T00:16:38;7.88;;;3.70;;
70558;SDS011;58108;48.094;11.838;2023-04-06T00:19:03;8.43;;;3.47;;
70558;SDS011;58108;48.094;11.838;2023-04-06T00:21:29;9.50;;;4.10;;
70558;SDS011;58108;48.094;11.838;2023-04-06T00:23:55;10.82;;;4.30;;
70558;SDS011;58108;48.094;11.838;2023-04-06T00:26:21;9.57;;;4.07;;
70558;SDS011;58108;48.094;11.838;2023-04-06T00:28:46;9.97;;;4.30;;
70558;SDS011;58108;48.094;11.838;2023-04-06T00:31:11;10.40;;;4.20;;
70558;SDS011;58108;48.094;11.838;2023-04-06T00:33:36;9.40;;;3.90;;
70558;SDS011;58108;48.094;11.838;2023-04-06T00:36:02;8.87;;;3.90;;
70558;SDS011;58108;48.094;11.838;2023-04-06T00:38:27;10.57;;;4.00;;
70558;SDS011;58108;48.094;11.838;2023-04-06T00:40:52;9.13;;;3.47;;
70558;SDS011;58108;48.094;11.838;2023-04-06T00:43:17;8.00;;;3.20;;
70558;SDS011;58108;48.094;11.838;2023-04-06T00:45:42;7.73;;;2.90;;
70558;SDS011;58108;48.094;11.838;2023-04-06T00:48:08;7.80;;;3.00;;
70558;SDS011;58108;48.094;11.838;2023-04-06T00:50:34;6.93;;;2.77;;
70558;SDS011;58108;48.094;11.838;2023-04-06T00:52:59;7.82;;;3.05;;
70558;SDS011;58108;48.094;11.838;2023-04-06T00:55:26;7.40;;;3.23;;
70558;SDS011;58108;48.094;11.838;2023-04-06T00:57:51;8.35;;;3.17;;
70558;SDS011;58108;48.094;11.838;2023-04-06T01:00:16;8.47;;;3.63;;
70558;SDS011;58108;48.094;11.838;2023-04-06T01:02:42;10.97;;;3.93;;
70558;SDS011;58108;48.094;11.838;2023-04-06T01:05:07;10.97;;;4.10;;
70558;SDS011;58108;48.094;11.838;2023-04-06T01:07:32;9.75;;;3.95;;
70558;SDS011;58108;48.094;11.838;2023-04-06T01:09:58;7.80;;;3.70;;
70558;SDS011;58108;48.094;11.838;2023-04-06T01:12:23;11.00;;;3.60;;
70558;SDS011;58108;48.094;11.838;2023-04-06T01:14:49;8.27;;;3.35;;
70558;SDS011;58108;48.094;11.838;2023-04-06T01:17:14;7.30;;;3.10;;
70558;SDS011;58108;48.094;11.838;2023-04-06T01:19:39;7.90;;;3.27;;
70558;SDS011;58108;48.094;11.838;2023-04-06T01:22:05;8.43;;;3.08;;
70558;SDS011;58108;48.094;11.838;2023-04-06T01:24:30;6.83;;;2.93;;
70558;SDS011;58108;48.094;11.838;2023-04-06T01:26:55;6.70;;;3.17;;
70558;SDS011;58108;48.094;11.838;2023-04-06T01:29:21;8.43;;;3.60;;
70558;SDS011;58108;48.094;11.838;2023-04-06T01:31:46;9.23;;;3.43;;
70558;SDS011;58108;48.094;11.838;2023-04-06T01:34:12;8.43;;;3.30;;
70558;SDS011;58108;48.094;11.838;2023-04-06T01:36:37;7.03;;;2.80;;
70558;SDS011;58108;48.094;11.838;2023-04-06T01:39:02;6.73;;;2.97;;
70558;SDS011;58108;48.094;11.838;2023-04-06T01:41:27;7.53;;;2.77;;
70558;SDS011;58108;48.094;11.838;2023-04-06T01:43:53;8.03;;;3.20;;
70558;SDS011;58108;48.094;11.838;2023-04-06T01:46:19;7.78;;;3.00;;
70558;SDS011;58108;48.094;11.838;2023-04-06T01:48:44;8.23;;;3.50;;
70558;SDS011;58108;48.094;11.838;2023-04-06T01:51:10;8.17;;;3.27;;
70558;SDS011;58108;48.094;11.838;2023-04-06T01:53:35;7.70;;;3.20;;
70558;SDS011;58108;48.094;11.838;2023-04-06T01:56:00;8.23;;;3.30;;
70558;SDS011;58108;48.094;11.838;2023-04-06T01:58:26;10.03;;;3.47;;
70558;SDS011;58108;48.094;11.838;2023-04-06T02:00:51;8.87;;;3.20;;
70558;SDS011;58108;48.094;11.838;2023-04-06T02:03:16;8.70;;;3.33;;
70558;SDS011;58108;48.094;11.838;2023-04-06T02:05:41;8.77;;;3.33;;
70558;SDS011;58108;48.094;11.838;2023-04-06T02:08:07;8.13;;;3.30;;
70558;SDS011;58108;48.094;11.838;2023-04-06T02:10:32;7.47;;;3.55;;
70558;SDS011;58108;48.094;11.838;2023-04-06T02:12:58;9.27;;;3.33;;
70558;SDS011;58108;48.094;11.838;2023-04-06T02:15:23;9.70;;;3.50;;
70558;SDS011;58108;48.094;11.838;2023-04-06T02:17:48;7.87;;;3.77;;
70558;SDS011;58108;48.094;11.838;2023-04-06T02:20:13;7.93;;;3.43;;
70558;SDS011;58108;48.094;11.838;2023-04-06T02:22:39;8.50;;;3.43;;
70558;SDS011;58108;48.094;11.838;2023-04-06T02:25:04;10.13;;;3.70;;
70558;SDS011;58108;48.094;11.838;2023-04-06T02:27:29;8.33;;;3.27;;
70558;SDS011;58108;48.094;11.838;2023-04-06T02:29:54;8.67;;;3.47;;
70558;SDS011;58108;48.094;11.838;2023-04-06T02:32:20;7.10;;;3.10;;
70558;SDS011;58108;48.094;11.838;2023-04-06T02:34:45;9.27;;;2.97;;
70558;SDS011;58108;48.094;11.838;2023-04-06T02:37:10;7.63;;;3.42;;
70558;SDS011;58108;48.094;11.838;2023-04-06T02:39:35;10.65;;;3.17;;
70558;SDS011;58108;48.094;11.838;2023-04-06T02:42:01;8.85;;;3.25;;
70558;SDS011;58108;48.094;11.838;2023-04-06T02:44:26;8.30;;;3.00;;
70558;SDS011;58108;48.094;11.838;2023-04-06T02:46:51;10.17;;;3.10;;
70558;SDS011;58108;48.094;11.838;2023-04-06T02:49:16;7.07;;;2.77;;
70558;SDS011;58108;48.094;11.838;2023-04-06T02:51:41;9.53;;;3.17;;
70558;SDS011;58108;48.094;11.838;2023-04-06T02:54:07;8.93;;;3.20;;
70558;SDS011;58108;48.094;11.838;2023-04-06T02:56:32;7.73;;;2.77;;
70558;SDS011;58108;48.094;11.838;2023-04-06T02:58:57;8.07;;;2.73;;
70558;SDS011;58108;48.094;11.838;2023-04-06T03:01:22;8.23;;;3.20;;
70558;SDS011;58108;48.094;11.838;2023-04-06T03:03:48;7.20;;;2.97;;
70558;SDS011;58108;48.094;11.838;2023-04-06T03:06:13;9.37;;;3.37;;
70558;SDS011;58108;48.094;11.838;2023-04-06T03:08:38;9.20;;;2.93;;
70558;SDS011;58108;48.094;11.838;2023-04-06T03:11:03;6.80;;;2.73;;
70558;SDS011;58108;48.094;11.838;2023-04-06T03:13:28;9.60;;;2.97;;
70558;SDS011;58108;48.094;11.838;2023-04-06T03:15:54;8.47;;;2.83;;
70558;SDS011;58108;48.094;11.838;2023-04-06T03:18:23;7.20;;;2.97;;
70558;SDS011;58108;48.094;11.838;2023-04-06T03:20:48;9.07;;;3.30;;
70558;SDS011;58108;48.094;11.838;2023-04-06T03:23:14;9.63;;;3.90;;
70558;SDS011;58108;48.094;11.838;2023-04-06T03:25:39;9.37;;;3.87;;
70558;SDS011;58108;48.094;11.838;2023-04-06T03:28:04;9.00;;;3.97;;
70558;SDS011;58108;48.094;11.838;2023-04-06T03:30:30;10.23;;;4.03;;
70558;SDS011;58108;48.094;11.838;2023-04-06T03:32:55;8.80;;;4.10;;
70558;SDS011;58108;48.094;11.838;2023-04-06T03:35:20;12.87;;;4.30;;
70558;SDS011;58108;48.094;11.838;2023-04-06T03:37:45;13.43;;;4.50;;
70558;SDS011;58108;48.094;11.838;2023-04-06T03:40:11;9.37;;;3.53;;
70558;SDS011;58108;48.094;11.838;2023-04-06T03:42:36;11.93;;;4.03;;
70558;SDS011;58108;48.094;11.838;2023-04-06T03:45:01;9.23;;;3.40;;
70558;SDS011;58108;48.094;11.838;2023-04-06T03:47:26;10.30;;;4.33;;
70558;SDS011;58108;48.094;11.838;2023-04-06T03:49:51;10.27;;;3.83;;
70558;SDS011;58108;48.094;11.838;2023-04-06T03:52:17;8.93;;;3.40;;
70558;SDS011;58108;48.094;11.838;2023-04-06T03:54:42;8.75;;;3.63;;
70558;SDS011;58108;48.094;11.838;2023-04-06T03:57:07;9.17;;;3.90;;
70558;SDS011;58108;48.094;11.838;2023-04-06T03:59:33;7.80;;;3.03;;
70558;SDS011;58108;48.094;11.838;2023-04-06T04:01:58;8.20;;;3.30;;
70558;SDS011;58108;48.094;11.838;2023-04-06T04:04:23;10.20;;;3.60;;
70558;SDS011;58108;48.094;11.838;2023-04-06T04:06:48;9.97;;;3.70;;
70558;SDS011;58108;48.094;11.838;2023-04-06T04:09:14;11.93;;;4.30;;
70558;SDS011;58108;48.094;11.838;2023-04-06T04:11:39;12.23;;;4.00;;
70558;SDS011;58108;48.094;11.838;2023-04-06T04:14:05;10.53;;;4.13;;
70558;SDS011;58108;48.094;11.838;2023-04-06T04:16:30;10.07;;;4.00;;
70558;SDS011;58108;48.094;11.838;2023-04-06T04:18:55;9.50;;;3.43;;
70558;SDS011;58108;48.094;11.838;2023-04-06T04:21:20;9.90;;;3.83;;
70558;SDS011;58108;48.094;11.838;2023-04-06T04:23:45;9.83;;;3.93;;
70558;SDS011;58108;48.094;11.838;2023-04-06T04:26:11;13.20;;;3.92;;
70558;SDS011;58108;48.094;11.838;2023-04-06T04:28:36;11.40;;;4.23;;
70558;SDS011;58108;48.094;11.838;2023-04-06T04:31:01;13.07;;;5.07;;
70558;SDS011;58108;48.094;11.838;2023-04-06T04:33:27;14.40;;;4.87;;
70558;SDS011;58108;48.094;11.838;2023-04-06T04:35:52;12.17;;;4.70;;
70558;SDS011;58108;48.094;11.838;2023-04-06T04:38:17;10.60;;;3.73;;
70558;SDS011;58108;48.094;11.838;2023-04-06T04:40:42;11.63;;;4.20;;
70558;SDS011;58108;48.094;11.838;2023-04-06T04:43:07;12.67;;;4.13;;
70558;SDS011;58108;48.094;11.838;2023-04-06T04:45:33;12.10;;;4.83;;
70558;SDS011;58108;48.094;11.838;2023-04-06T04:47:58;13.30;;;5.33;;
70558;SDS011;58108;48.094;11.838;2023-04-06T04:50:23;11.97;;;4.57;;
70558;SDS011;58108;48.094;11.838;2023-04-06T04:52:48;12.87;;;5.17;;
70558;SDS011;58108;48.094;11.838;2023-04-06T04:55:14;12.97;;;5.10;;
70558;SDS011;58108;48.094;11.838;2023-04-06T04:57:39;13.97;;;5.23;;
70558;SDS011;58108;48.094;11.838;2023-04-06T05:00:05;14.23;;;5.43;;
70558;SDS011;58108;48.094;11.838;2023-04-06T05:02:30;12.88;;;5.57;;
70558;SDS011;58108;48.094;11.838;2023-04-06T05:04:55;15.23;;;4.93;;
70558;SDS011;58108;48.094;11.838;2023-04-06T05:07:21;13.33;;;5.33;;
70558;SDS011;58108;48.094;11.838;2023-04-06T05:09:46;13.70;;;4.93;;
70558;SDS011;58108;48.094;11.838;2023-04-06T05:12:11;15.23;;;5.77;;
70558;SDS011;58108;48.094;11.838;2023-04-06T05:14:37;20.07;;;5.10;;
70558;SDS011;58108;48.094;11.838;2023-04-06T05:17:02;15.17;;;4.57;;
70558;SDS011;58108;48.094;11.838;2023-04-06T05:19:27;17.47;;;5.30;;
70558;SDS011;58108;48.094;11.838;2023-04-06T05:21:52;12.43;;;4.83;;
70558;SDS011;58108;48.094;11.838;2023-04-06T05:24:17;15.27;;;4.47;;
70558;SDS011;58108;48.094;11.838;2023-04-06T05:26:43;9.97;;;4.30;;
70558;SDS011;58108;48.094;11.838;2023-04-06T05:29:08;11.70;;;4.87;;
70558;SDS011;58108;48.094;11.838;2023-04-06T05:31:33;12.13;;;4.90;;
70558;SDS011;58108;48.094;11.838;2023-04-06T05:33:58;11.20;;;5.17;;
70558;SDS011;58108;48.094;11.838;2023-04-06T05:36:24;13.93;;;5.20;;
70558;SDS011;58108;48.094;11.838;2023-04-06T05:38:49;12.90;;;5.33;;
70558;SDS011;58108;48.094;11.838;2023-04-06T05:41:16;13.88;;;4.93;;
70558;SDS011;58108;48.094;11.838;2023-04-06T05:43:41;13.67;;;5.57;;
70558;SDS011;58108;48.094;11.838;2023-04-06T05:46:07;14.80;;;5.50;;
70558;SDS011;58108;48.094;11.838;2023-04-06T05:48:32;13.77;;;5.57;;
70558;SDS011;58108;48.094;11.838;2023-04-06T05:50:57;12.67;;;4.90;;
70558;SDS011;58108;48.094;11.838;2023-04-06T05:53:22;12.90;;;4.80;;
70558;SDS011;58108;48.094;11.838;2023-04-06T05:55:47;12.30;;;4.90;;
70558;SDS011;58108;48.094;11.838;2023-04-06T05:58:13;12.47;;;5.63;;
70558;SDS011;58108;48.094;11.838;2023-04-06T06:00:38;10.13;;;4.93;;
70558;SDS011;58108;48.094;11.838;2023-04-06T06:03:03;11.17;;;5.10;;
70558;SDS011;58108;48.094;11.838;2023-04-06T06:05:29;14.07;;;5.43;;
70558;SDS011;58108;48.094;11.838;2023-04-06T06:07:54;10.27;;;4.43;;
70558;SDS011;58108;48.094;11.838;2023-04-06T06:10:20;14.77;;;5.10;;
70558;SDS011;58108;48.094;11.838;2023-04-06T06:12:45;14.93;;;5.43;;
70558;SDS011;58108;48.094;11.838;2023-04-06T06:15:10;15.50;;;6.10;;
70558;SDS011;58108;48.094;11.838;2023-04-06T06:17:35;13.23;;;5.40;;
70558;SDS011;58108;48.094;11.838;2023-04-06T06:20:01;11.00;;;4.93;;
70558;SDS011;58108;48.094;11.838;2023-04-06T06:22:26;13.27;;;5.87;;
70558;SDS011;58108;48.094;11.838;2023-04-06T06:24:51;14.50;;;5.70;;
70558;SDS011;58108;48.094;11.838;2023-04-06T06:27:16;13.33;;;5.33;;
70558;SDS011;58108;48.094;11.838;2023-04-06T06:29:42;10.90;;;5.10;;
70558;SDS011;58108;48.094;11.838;2023-04-06T06:32:07;8.77;;;3.80;;
70558;SDS011;58108;48.094;11.838;2023-04-06T06:34:34;12.70;;;5.00;;
70558;SDS011;58108;48.094;11.838;2023-04-06T06:36:59;12.40;;;4.78;;
70558;SDS011;58108;48.094;11.838;2023-04-06T06:39:25;13.48;;;5.20;;
70558;SDS011;58108;48.094;11.838;2023-04-06T06:41:51;14.98;;;6.22;;
70558;SDS011;58108;48.094;11.838;2023-04-06T06:44:16;11.93;;;5.33;;
70558;SDS011;58108;48.094;11.838;2023-04-06T06:46:41;11.80;;;5.13;;
70558;SDS011;58108;48.094;11.838;2023-04-06T06:49:06;11.60;;;5.47;;
70558;SDS011;58108;48.094;11.838;2023-04-06T06:51:32;11.67;;;4.90;;
70558;SDS011;58108;48.094;11.838;2023-04-06T06:53:57;11.33;;;4.90;;
70558;SDS011;58108;48.094;11.838;2023-04-06T06:56:22;9.10;;;3.53;;
70558;SDS011;58108;48.094;11.838;2023-04-06T06:58:47;11.00;;;5.03;;
70558;SDS011;58108;48.094;11.838;2023-04-06T07:01:13;9.57;;;4.63;;
70558;SDS011;58108;48.094;11.838;2023-04-06T07:03:38;9.90;;;4.67;;
70558;SDS011;58108;48.094;11.838;2023-04-06T07:06:03;9.50;;;4.50;;
70558;SDS011;58108;48.094;11.838;2023-04-06T07:08:28;11.60;;;4.83;;
70558;SDS011;58108;48.094;11.838;2023-04-06T07:10:53;10.53;;;4.73;;
70558;SDS011;58108;48.094;11.838;2023-04-06T07:13:21;10.07;;;4.30;;
70558;SDS011;58108;48.094;11.838;2023-04-06T07:15:48;10.35;;;4.60;;
70558;SDS011;58108;48.094;11.838;2023-04-06T07:18:13;10.63;;;4.40;;
70558;SDS011;58108;48.094;11.838;2023-04-06T07:20:39;14.07;;;5.33;;
70558;SDS011;58108;48.094;11.838;2023-04-06T07:23:04;9.00;;;4.63;;
70558;SDS011;58108;48.094;11.838;2023-04-06T07:25:30;12.10;;;4.77;;
70558;SDS011;58108;48.094;11.838;2023-04-06T07:27:55;12.23;;;4.70;;
70558;SDS011;58108;48.094;11.838;2023-04-06T07:30:20;10.45;;;4.63;;
70558;SDS011;58108;48.094;11.838;2023-04-06T07:32:47;10.35;;;4.57;;
70558;SDS011;58108;48.094;11.838;2023-04-06T07:35:12;10.80;;;4.28;;
70558;SDS011;58108;48.094;11.838;2023-04-06T07:37:37;10.90;;;4.83;;
70558;SDS011;58108;48.094;11.838;2023-04-06T07:40:02;11.13;;;4.43;;
70558;SDS011;58108;48.094;11.838;2023-04-06T07:42:28;10.48;;;4.82;;
70558;SDS011;58108;48.094;11.838;2023-04-06T07:44:53;9.07;;;4.53;;
70558;SDS011;58108;48.094;11.838;2023-04-06T07:47:18;10.57;;;4.90;;
70558;SDS011;58108;48.094;11.838;2023-04-06T07:49:43;10.57;;;4.80;;
70558;SDS011;58108;48.094;11.838;2023-04-06T07:52:08;12.03;;;4.63;;
70558;SDS011;58108;48.094;11.838;2023-04-06T07:54:34;10.77;;;4.83;;
70558;SDS011;58108;48.094;11.838;2023-04-06T07:56:59;11.13;;;4.53;;
70558;SDS011;58108;48.094;11.838;2023-04-06T07:59:24;9.57;;;4.40;;
70558;SDS011;58108;48.094;11.838;2023-04-06T08:01:50;8.47;;;4.23;;
70558;SDS011;58108;48.094;11.838;2023-04-06T08:04:15;11.67;;;4.53;;
70558;SDS011;58108;48.094;11.838;2023-04-06T08:06:40;9.43;;;4.50;;
70558;SDS011;58108;48.094;11.838;2023-04-06T08:09:06;9.77;;;4.00;;
70558;SDS011;58108;48.094;11.838;2023-04-06T08:11:31;9.83;;;4.50;;
70558;SDS011;58108;48.094;11.838;2023-04-06T08:13:56;10.83;;;4.37;;
70558;SDS011;58108;48.094;11.838;2023-04-06T08:16:22;8.23;;;3.35;;
70558;SDS011;58108;48.094;11.838;2023-04-06T08:18:47;8.43;;;4.07;;
70558;SDS011;58108;48.094;11.838;2023-04-06T08:21:12;10.67;;;4.57;;
70558;SDS011;58108;48.094;11.838;2023-04-06T08:23:37;9.73;;;4.13;;
70558;SDS011;58108;48.094;11.838;2023-04-06T08:26:03;7.67;;;3.33;;
70558;SDS011;58108;48.094;11.838;2023-04-06T08:28:28;7.57;;;3.13;;
70558;SDS011;58108;48.094;11.838;2023-04-06T08:30:53;10.20;;;4.17;;
70558;SDS011;58108;48.094;11.838;2023-04-06T08:33:18;8.77;;;3.77;;
70558;SDS011;58108;48.094;11.838;2023-04-06T08:35:43;8.77;;;3.30;;
70558;SDS011;58108;48.094;11.838;2023-04-06T08:38:09;9.17;;;4.03;;
70558;SDS011;58108;48.094;11.838;2023-04-06T08:40:37;7.67;;;2.63;;
70558;SDS011;58108;48.094;11.838;2023-04-06T08:43:03;8.98;;;3.65;;
70558;SDS011;58108;48.094;11.838;2023-04-06T08:45:33;6.80;;;3.10;;
70558;SDS011;58108;48.094;11.838;2023-04-06T08:47:58;8.85;;;4.03;;
70558;SDS011;58108;48.094;11.838;2023-04-06T08:50:26;11.13;;;4.90;;
70558;SDS011;58108;48.094;11.838;2023-04-06T08:52:52;9.02;;;4.05;;
70558;SDS011;58108;48.094;11.838;2023-04-06T08:55:18;9.88;;;4.25;;
70558;SDS011;58108;48.094;11.838;2023-04-06T08:57:44;10.63;;;4.07;;
70558;SDS011;58108;48.094;11.838;2023-04-06T09:00:10;10.82;;;4.68;;
70558;SDS011;58108;48.094;11.838;2023-04-06T09:02:38;10.00;;;4.57;;
70558;SDS011;58108;48.094;11.838;2023-04-06T09:05:03;8.55;;;4.28;;
70558;SDS011;58108;48.094;11.838;2023-04-06T09:07:29;9.57;;;4.80;;
70558;SDS011;58108;48.094;11.838;2023-04-06T09:09:54;9.43;;;4.20;;
70558;SDS011;58108;48.094;11.838;2023-04-06T09:12:26;9.13;;;4.53;;
70558;SDS011;58108;48.094;11.838;2023-04-06T09:14:52;11.80;;;4.93;;
70558;SDS011;58108;48.094;11.838;2023-04-06T09:17:25;8.83;;;4.57;;
70558;SDS011;58108;48.094;11.838;2023-04-06T09:19:51;11.23;;;4.88;;
70558;SDS011;58108;48.094;11.838;2023-04-06T09:22:16;8.73;;;4.37;;
70558;SDS011;58108;48.094;11.838;2023-04-06T09:27:07;9.30;;;4.90;;
70558;SDS011;58108;48.094;11.838;2023-04-06T09:29:32;10.50;;;4.50;;
70558;SDS011;58108;48.094;11.838;2023-04-06T09:32:01;10.33;;;4.90;;
70558;SDS011;58108;48.094;11.838;2023-04-06T09:34:27;9.63;;;4.75;;
70558;SDS011;58108;48.094;11.838;2023-04-06T09:36:52;9.87;;;4.83;;
70558;SDS011;58108;48.094;11.838;2023-04-06T09:39:20;8.47;;;4.50;;
70558;SDS011;58108;48.094;11.838;2023-04-06T09:41:48;9.98;;;4.68;;
70558;SDS011;58108;48.094;11.838;2023-04-06T09:44:13;7.72;;;3.80;;
70558;SDS011;58108;48.094;11.838;2023-04-06T09:46:42;11.70;;;5.60;;
70558;SDS011;58108;48.094;11.838;2023-04-06T09:49:08;10.73;;;4.90;;
70558;SDS011;58108;48.094;11.838;2023-04-06T09:51:37;11.73;;;5.22;;
70558;SDS011;58108;48.094;11.838;2023-04-06T09:54:03;9.63;;;5.03;;
70558;SDS011;58108;48.094;11.838;2023-04-06T09:56:45;9.35;;;4.82;;
70558;SDS011;58108;48.094;11.838;2023-04-06T09:59:18;9.80;;;5.00;;
70558;SDS011;58108;48.094;11.838;2023-04-06T10:01:46;9.98;;;4.80;;
70558;SDS011;58108;48.094;11.838;2023-04-06T10:04:59;10.07;;;4.90;;
70558;SDS011;58108;48.094;11.838;2023-04-06T10:06:59;9.88;;;4.70;;
70558;SDS011;58108;48.094;11.838;2023-04-06T10:09:24;10.07;;;5.40;;
70558;SDS011;58108;48.094;11.838;2023-04-06T10:11:50;10.30;;;5.38;;
70558;SDS011;58108;48.094;11.838;2023-04-06T10:14:16;10.65;;;4.88;;
70558;SDS011;58108;48.094;11.838;2023-04-06T10:16:42;12.37;;;5.10;;
70558;SDS011;58108;48.094;11.838;2023-04-06T10:19:13;7.20;;;3.22;;
70558;SDS011;58108;48.094;11.838;2023-04-06T10:21:38;10.70;;;5.25;;
70558;SDS011;58108;48.094;11.838;2023-04-06T10:24:06;10.48;;;5.25;;
70558;SDS011;58108;48.094;11.838;2023-04-06T10:26:34;10.23;;;5.07;;
70558;SDS011;58108;48.094;11.838;2023-04-06T10:29:02;7.50;;;3.70;;
70558;SDS011;58108;48.094;11.838;2023-04-06T10:31:28;9.77;;;5.13;;
70558;SDS011;58108;48.094;11.838;2023-04-06T10:33:54;9.43;;;4.70;;
70558;SDS011;58108;48.094;11.838;2023-04-06T10:36:24;6.13;;;3.20;;
70558;SDS011;58108;48.094;11.838;2023-04-06T10:38:54;7.22;;;3.15;;
70558;SDS011;58108;48.094;11.838;2023-04-06T10:41:20;9.07;;;4.70;;
70558;SDS011;58108;48.094;11.838;2023-04-06T10:43:46;9.70;;;4.18;;
70558;SDS011;58108;48.094;11.838;2023-04-06T10:46:24;9.10;;;4.93;;
70558;SDS011;58108;48.094;11.838;2023-04-06T10:48:49;9.70;;;5.10;;
70558;SDS011;58108;48.094;11.838;2023-04-06T10:51:16;13.95;;;6.78;;
70558;SDS011;58108;48.094;11.838;2023-04-06T10:53:42;12.40;;;5.68;;
70558;SDS011;58108;48.094;11.838;2023-04-06T10:56:12;9.75;;;5.13;;
70558;SDS011;58108;48.094;11.838;2023-04-06T10:58:37;12.33;;;5.37;;
70558;SDS011;58108;48.094;11.838;2023-04-06T11:01:02;12.77;;;6.40;;
70558;SDS011;58108;48.094;11.838;2023-04-06T11:03:28;10.17;;;5.57;;
70558;SDS011;58108;48.094;11.838;2023-04-06T11:05:53;9.07;;;4.80;;
70558;SDS011;58108;48.094;11.838;2023-04-06T11:08:25;9.40;;;5.00;;
70558;SDS011;58108;48.094;11.838;2023-04-06T11:10:51;7.85;;;4.68;;
70558;SDS011;58108;48.094;11.838;2023-04-06T11:13:16;11.33;;;5.00;;
70558;SDS011;58108;48.094;11.838;2023-04-06T11:15:42;7.53;;;3.80;;
70558;SDS011;58108;48.094;11.838;2023-04-06T11:18:07;14.07;;;6.60;;
70558;SDS011;58108;48.094;11.838;2023-04-06T11:20:32;14.80;;;7.33;;
70558;SDS011;58108;48.094;11.838;2023-04-06T11:22:58;9.53;;;5.10;;
70558;SDS011;58108;48.094;11.838;2023-04-06T11:25:24;9.93;;;5.53;;
70558;SDS011;58108;48.094;11.838;2023-04-06T11:27:51;10.02;;;5.03;;
70558;SDS011;58108;48.094;11.838;2023-04-06T11:30:16;11.63;;;5.63;;
70558;SDS011;58108;48.094;11.838;2023-04-06T11:32:42;9.50;;;5.07;;
70558;SDS011;58108;48.094;11.838;2023-04-06T11:35:20;10.77;;;5.18;;
70558;SDS011;58108;48.094;11.838;2023-04-06T11:37:46;9.60;;;4.97;;
70558;SDS011;58108;48.094;11.838;2023-04-06T11:40:11;12.70;;;6.33;;
70558;SDS011;58108;48.094;11.838;2023-04-06T11:42:36;10.57;;;4.73;;
70558;SDS011;58108;48.094;11.838;2023-04-06T11:45:02;7.87;;;3.60;;
70558;SDS011;58108;48.094;11.838;2023-04-06T11:47:31;7.97;;;3.83;;
70558;SDS011;58108;48.094;11.838;2023-04-06T11:50:04;9.43;;;4.68;;
70558;SDS011;58108;48.094;11.838;2023-04-06T11:52:30;9.70;;;4.95;;
70558;SDS011;58108;48.094;11.838;2023-04-06T11:54:56;9.13;;;4.80;;
70558;SDS011;58108;48.094;11.838;2023-04-06T11:57:22;10.90;;;5.40;;
70558;SDS011;58108;48.094;11.838;2023-04-06T11:59:51;7.88;;;4.85;;
70558;SDS011;58108;48.094;11.838;2023-04-06T12:02:16;9.03;;;5.00;;
70558;SDS011;58108;48.094;11.838;2023-04-06T12:04:42;7.90;;;3.70;;
70558;SDS011;58108;48.094;11.838;2023-04-06T12:07:08;8.23;;;4.40;;
70558;SDS011;58108;48.094;11.838;2023-04-06T12:09:33;8.77;;;4.37;;
70558;SDS011;58108;48.094;11.838;2023-04-06T12:11:59;8.90;;;4.82;;
70558;SDS011;58108;48.094;11.838;2023-04-06T12:14:25;7.65;;;4.40;;
70558;SDS011;58108;48.094;11.838;2023-04-06T12:16:50;9.30;;;4.33;;
70558;SDS011;58108;48.094;11.838;2023-04-06T12:19:16;7.53;;;4.13;;
70558;SDS011;58108;48.094;11.838;2023-04-06T12:21:41;9.47;;;4.80;;
70558;SDS011;58108;48.094;11.838;2023-04-06T12:24:07;12.25;;;5.68;;
70558;SDS011;58108;48.094;11.838;2023-04-06T12:26:33;16.53;;;6.23;;
70558;SDS011;58108;48.094;11.838;2023-04-06T12:28:58;12.30;;;5.47;;
70558;SDS011;58108;48.094;11.838;2023-04-06T12:31:29;9.60;;;5.25;;
70558;SDS011;58108;48.094;11.838;2023-04-06T12:33:55;10.50;;;5.83;;
70558;SDS011;58108;48.094;11.838;2023-04-06T12:36:20;10.40;;;5.70;;
70558;SDS011;58108;48.094;11.838;2023-04-06T12:38:48;9.85;;;5.40;;
70558;SDS011;58108;48.094;11.838;2023-04-06T12:41:15;8.80;;;4.93;;
70558;SDS011;58108;48.094;11.838;2023-04-06T12:43:43;9.15;;;5.15;;
70558;SDS011;58108;48.094;11.838;2023-04-06T12:46:09;9.98;;;5.60;;
70558;SDS011;58108;48.094;11.838;2023-04-06T12:48:35;11.80;;;5.85;;
70558;SDS011;58108;48.094;11.838;2023-04-06T12:51:01;10.98;;;5.57;;
70558;SDS011;58108;48.094;11.838;2023-04-06T12:53:27;10.20;;;5.82;;
70558;SDS011;58108;48.094;11.838;2023-04-06T12:55:53;10.50;;;5.63;;
70558;SDS011;58108;48.094;11.838;2023-04-06T12:58:19;11.57;;;6.15;;
70558;SDS011;58108;48.094;11.838;2023-04-06T13:00:44;10.33;;;5.70;;
70558;SDS011;58108;48.094;11.838;2023-04-06T13:03:10;9.90;;;5.40;;
70558;SDS011;58108;48.094;11.838;2023-04-06T13:05:35;10.82;;;5.95;;
70558;SDS011;58108;48.094;11.838;2023-04-06T13:08:01;9.13;;;5.10;;
70558;SDS011;58108;48.094;11.838;2023-04-06T13:10:26;10.70;;;5.50;;
70558;SDS011;58108;48.094;11.838;2023-04-06T13:12:51;10.03;;;6.27;;
70558;SDS011;58108;48.094;11.838;2023-04-06T13:15:17;13.50;;;6.97;;
70558;SDS011;58108;48.094;11.838;2023-04-06T13:17:42;10.40;;;5.73;;
70558;SDS011;58108;48.094;11.838;2023-04-06T13:20:07;10.40;;;5.70;;
70558;SDS011;58108;48.094;11.838;2023-04-06T13:22:33;9.23;;;5.17;;
70558;SDS011;58108;48.094;11.838;2023-04-06T13:24:58;13.23;;;5.93;;
70558;SDS011;58108;48.094;11.838;2023-04-06T13:27:23;7.83;;;5.07;;
70558;SDS011;58108;48.094;11.838;2023-04-06T13:29:48;10.07;;;5.70;;
70558;SDS011;58108;48.094;11.838;2023-04-06T13:32:14;11.17;;;6.43;;
70558;SDS011;58108;48.094;11.838;2023-04-06T13:34:39;27.65;;;14.93;;
70558;SDS011;58108;48.094;11.838;2023-04-06T13:37:09;15.20;;;8.77;;
70558;SDS011;58108;48.094;11.838;2023-04-06T13:39:34;11.05;;;6.50;;
70558;SDS011;58108;48.094;11.838;2023-04-06T13:42:00;10.73;;;6.10;;
70558;SDS011;58108;48.094;11.838;2023-04-06T13:44:27;9.52;;;5.57;;
70558;SDS011;58108;48.094;11.838;2023-04-06T13:46:52;10.45;;;5.57;;
70558;SDS011;58108;48.094;11.838;2023-04-06T13:49:18;10.00;;;5.45;;
70558;SDS011;58108;48.094;11.838;2023-04-06T13:51:43;10.40;;;5.30;;
70558;SDS011;58108;48.094;11.838;2023-04-06T13:54:09;11.97;;;5.87;;
70558;SDS011;58108;48.094;11.838;2023-04-06T13:56:34;13.83;;;6.30;;
70558;SDS011;58108;48.094;11.838;2023-04-06T13:58:59;9.87;;;5.30;;
70558;SDS011;58108;48.094;11.838;2023-04-06T14:01:24;11.60;;;5.87;;
70558;SDS011;58108;48.094;11.838;2023-04-06T14:03:51;13.63;;;7.03;;
70558;SDS011;58108;48.094;11.838;2023-04-06T14:06:16;12.17;;;6.70;;
70558;SDS011;58108;48.094;11.838;2023-04-06T14:08:41;14.47;;;7.03;;
70558;SDS011;58108;48.094;11.838;2023-04-06T14:11:10;11.33;;;6.00;;
70558;SDS011;58108;48.094;11.838;2023-04-06T14:13:36;12.98;;;7.20;;
70558;SDS011;58108;48.094;11.838;2023-04-06T14:16:02;13.80;;;6.70;;
70558;SDS011;58108;48.094;11.838;2023-04-06T14:18:27;11.50;;;6.00;;
70558;SDS011;58108;48.094;11.838;2023-04-06T14:20:55;13.43;;;8.10;;
70558;SDS011;58108;48.094;11.838;2023-04-06T14:23:21;10.70;;;5.50;;